OOCL Long Beach — VRYO4 — position and weather

sailwx.info

Track history (hours):
 
Tides and Currents Weather Stations Pressure Air Temp Water Temp Dewpoint Dewpoint Depression Visibility Wind Speed Wind Dir Waves Ship Positions

OOCL Long Beach

Last reported at 2015-Jul-03 18:33 UTC. Time now 2015-Jul-05 07:46 UTC.
Position N 33°52' E 137°32'.

Length 323 m; beam 42.8 m; draft 14.5 m.

Type: Cargo ship. MMSI: 477316000.

Date/timePositionNaut miles runAvg speedWind from/ knotsBaromVisibWave heightAir tempDewpointWater temp
2015-Jul-03 18:33N 33°52' E 137°32'1816.3
2015-Jul-03 17:29N 34°00' E 137°50'9115.4
2015-Jul-03 11:33N 34°39' E 139°30'1515.5
2015-Jul-03 10:33N 34°45' E 139°47'1514.5
2015-Jul-03 09:30N 34°52' E 140°04'1414.4
2015-Jul-03 08:33N 34°59' E 140°18'1414.1
2015-Jul-03 07:33N 35°07' E 140°32'1514.6
2015-Jul-03 06:32N 35°15' E 140°47'3415.2
2015-Jul-03 04:19N 35°38' E 141°18'1215.4
2015-Jul-03 03:33N 35°47' E 141°28'  
Track history (hours):
 
Tides and Currents Weather Stations Pressure Air Temp Water Temp Dewpoint Dewpoint Depression Visibility Wind Speed Wind Dir Waves Ship Positions

OOCL Long Beach

Last reported at 2015-Jul-03 18:33 UTC. Time now 2015-Jul-05 07:46 UTC.
Position N 33°52' E 137°32'.

Length 323 m; beam 42.8 m; draft 14.5 m.

Type: Cargo ship. MMSI: 477316000.

Date/timePositionNaut miles runAvg speedWind from/ knotsBaromVisibWave heightAir tempDewpointWater temp
2015-Jul-03 18:33N 33°52' E 137°32'1816.3
2015-Jul-03 17:29N 34°00' E 137°50'9115.4
2015-Jul-03 11:33N 34°39' E 139°30'1515.5
2015-Jul-03 10:33N 34°45' E 139°47'1514.5
2015-Jul-03 09:30N 34°52' E 140°04'1414.4
2015-Jul-03 08:33N 34°59' E 140°18'1414.1
2015-Jul-03 07:33N 35°07' E 140°32'1514.6
2015-Jul-03 06:32N 35°15' E 140°47'3415.2
2015-Jul-03 04:19N 35°38' E 141°18'1215.4
2015-Jul-03 03:33N 35°47' E 141°28'  

Dump ship's entire track history